Latest Weather Observations for Cape Nelson

IDV60801

Issued at 11:32 pm EST Wednesday 24 August 2016 (issued every 30 minutes, with the page automatically refreshed every 10 minutes)

About weather observations | Map of weather stations | Latest weather observations for VIC | Other Formats
Station Details ID: 090184 Name: CAPE NELSON LIGHTHOUSE Lat: -38.43 Lon: 141.54 Height: 45.4 m
Data from the previous 72 hours. | See also: Recent months at Cape Nelson
Date/Time
EST
Temp
°C
App
Temp
°C
Dew
Point
°C
Rel
Hum
%
Delta-T
°C
Wind Press
QNH
hPa
Press
MSL
hPa
Rain since
9am
mm
Dir  Spd
km/h
Gust
km/h
Spd
kts
Gust
kts
24/11:30pm 10.0 4.3 6.7 80 1.5 W 26 37 14 20 1015.5 1015.5 0.0
24/11:00pm 10.0 6.2 6.0 76 1.8 NNE 15 24 8 13 1015.6 1015.6 0.0
24/10:30pm 9.7 5.8 5.5 75 1.9 NNE 15 28 8 15 1015.7 1015.7 0.0
24/10:00pm 10.2 6.7 5.4 72 2.2 NE 13 19 7 10 1015.9 1015.9 0.0
24/09:30pm 10.2 6.6 5.0 70 2.4 E 13 24 7 13 1016.1 1016.1 0.0
24/09:00pm 10.5 6.4 4.6 67 2.7 SE 15 33 8 18 1016.1 1016.1 0.0
24/08:30pm 10.5 6.1 4.9 68 2.5 S 17 30 9 16 1016.2 1016.2 0.0
24/08:00pm 10.2 6.2 5.0 70 2.4 S 15 28 8 15 1016.3 1016.3 0.0
24/07:30pm 9.9 4.6 5.1 72 2.2 S 22 33 12 18 1016.4 1016.4 0.0
24/07:00pm 10.2 4.8 4.6 68 2.5 S 22 28 12 15 1016.3 1016.3 0.0
24/06:30pm 10.1 4.8 5.1 71 2.3 S 22 33 12 18 1016.2 1016.2 0.0
24/06:00pm 10.4 5.0 4.3 66 2.7 S 22 28 12 15 1016.0 1016.0 0.0
24/05:30pm 10.3 5.3 3.8 64 2.9 S 19 30 10 16 1015.9 1015.9 0.0
24/05:00pm 10.5 5.3 3.8 63 3.0 S 20 33 11 18 1015.8 1015.8 0.0
24/04:30pm 10.5 5.7 4.4 66 2.7 S 19 30 10 16 1015.7 1015.7 0.0
24/04:00pm 11.5 7.0 4.0 60 3.4 S 17 24 9 13 1015.7 1015.7 0.0
24/03:30pm 11.9 7.7 3.7 57 3.7 S 15 20 8 11 1015.8 1015.8 0.0
24/03:00pm 11.8 7.1 3.3 56 3.8 S 17 24 9 13 1015.7 1015.7 0.0
24/02:30pm 11.6 6.9 3.4 57 3.6 S 17 22 9 12 1015.8 1015.8 0.0
24/02:00pm 12.0 7.4 3.5 56 3.8 S 17 26 9 14 1015.9 1015.9 0.0
24/01:30pm 11.7 7.2 4.0 59 3.5 S 17 24 9 13 1016.0 1016.0 0.0
24/01:00pm 11.9 7.0 4.2 59 3.5 S 19 26 10 14 1016.3 1016.3 0.0
24/12:30pm 11.6 6.5 3.9 59 3.4 S 20 24 11 13 1016.4 1016.4 0.0
24/12:00pm 11.5 6.0 4.0 60 3.4 S 22 28 12 15 1016.7 1016.7 0.0
24/11:30am 11.8 6.9 4.1 59 3.5 SSE 19 26 10 14 1017.0 1017.0 0.0
24/11:00am 11.0 6.1 4.0 62 3.1 S 19 26 10 14 1017.0 1017.0 0.0
24/10:30am 11.4 6.9 4.4 62 3.2 SSE 17 26 9 14 1017.1 1017.1 0.0
24/10:00am 11.6 6.5 3.9 59 3.4 SE 20 26 11 14 1017.4 1017.4 0.0
24/09:30am 11.1 5.7 4.6 64 2.9 SSE 22 28 12 15 1017.6 1017.6 0.0
24/09:00am 10.8 5.0 4.5 65 2.8 SSE 24 32 13 17 1017.7 1017.7 0.0
24/08:30am 9.4 4.1 4.8 73 2.1 SSE 22 30 12 16 1017.7 1017.7 0.0
24/08:00am 8.7 5.4 4.5 75 1.9 ENE 11 13 6 7 1017.6 1017.6 0.0
24/07:30am 9.5 4.4 4.3 70 2.3 SE 20 30 11 16 1017.4 1017.4 0.0
24/07:00am 9.4 5.7 2.3 61 3.0 SSE 11 15 6 8 1017.2 1017.2 0.0
24/06:30am 9.7 5.0 3.2 64 2.8 SE 17 20 9 11 1017.1 1017.1 0.0
24/06:00am 9.6 4.8 2.5 61 3.0 SSE 17 26 9 14 1017.0 1017.0 0.0
24/05:30am 9.3 5.1 1.7 59 3.2 SSE 13 17 7 9 1016.9 1016.9 0.0
24/05:00am 9.5 5.3 1.4 57 3.3 S 13 20 7 11 1016.9 1016.9 0.0
24/04:30am 9.7 5.1 1.8 58 3.3 SSE 15 20 8 11 1016.9 1016.9 0.0
24/04:00am 9.8 5.0 2.4 60 3.1 SSE 17 22 9 12 1016.9 1016.9 0.0
24/03:30am 9.6 4.7 2.0 59 3.2 SSE 17 22 9 12 1017.0 1017.0 0.0
24/03:00am 9.9 5.0 2.0 58 3.3 SSE 17 22 9 12 1017.2 1017.2 0.0
24/02:30am 10.2 5.0 2.6 59 3.3 SSE 19 24 10 13 1017.4 1017.4 0.0
24/02:00am 10.1 5.7 2.9 61 3.1 SSE 15 20 8 11 1017.5 1017.5 0.0
24/01:30am 9.9 6.7 3.0 62 3.0 SSE 9 15 5 8 1017.6 1017.6 0.0
24/01:00am 9.4 6.5 2.5 62 2.9 E 7 13 4 7 1017.8 1017.8 0.0
24/12:30am 9.7 6.4 2.3 60 3.1 SE 9 15 5 8 1017.8 1017.8 0.0
24/12:00am 9.6 6.6 2.2 60 3.1 SE 7 15 4 8 1017.9 1017.9 0.0
 
Date/Time
EST
Temp
°C
App
Temp
°C
Dew
Point
°C
Rel
Hum
%
Delta-T
°C
Wind Press
QNH
hPa
Press
MSL
hPa
Rain since
9am
mm
Dir  Spd
km/h
Gust
km/h
Spd
kts
Gust
kts
23/11:30pm 9.8 5.6 1.7 57 3.4 SE 13 22 7 12 1018.1 1018.1 0.0
23/11:00pm 9.9 4.6 1.8 57 3.4 SSE 19 24 10 13 1018.3 1018.3 0.0
23/10:30pm 9.4 5.1 3.2 65 2.7 SSE 15 20 8 11 1018.3 1018.3 0.0
23/10:00pm 6.7 3.9 2.0 72 1.9 NW 6 11 3 6 1018.3 1018.3 0.0
23/09:30pm 9.1 5.4 2.2 62 2.9 SSE 11 15 6 8 1018.4 1018.4 0.0
23/09:00pm 9.5 5.4 2.1 60 3.1 S 13 19 7 10 1018.4 1018.4 0.0
23/08:30pm 9.7 5.6 2.3 60 3.1 SE 13 19 7 10 1018.4 1018.4 0.0
23/08:00pm 9.6 5.9 2.5 61 3.0 SE 11 19 6 10 1018.5 1018.5 0.0
23/07:30pm 9.2 5.9 2.3 62 2.9 SE 9 15 5 8 1018.6 1018.6 0.0
23/07:00pm 9.0 5.6 1.9 61 3.0 SE 9 13 5 7 1018.5 1018.5 0.0
23/06:30pm 9.4 6.1 2.3 61 3.0 SE 9 17 5 9 1018.3 1018.3 0.0
23/06:00pm 9.7 5.7 2.6 61 3.0 SE 13 17 7 9 1018.0 1018.0 0.0
23/05:30pm 10.1 5.2 2.2 58 3.4 SE 17 22 9 12 1017.8 1017.8 0.0
23/05:00pm 10.7 6.3 2.5 57 3.5 SE 15 24 8 13 1017.7 1017.7 0.0
23/04:30pm 11.3 7.2 2.3 54 3.9 SE 13 19 7 10 1017.8 1017.8 0.0
23/04:00pm 11.2 6.8 2.8 56 3.6 SE 15 22 8 12 1017.7 1017.7 0.0
23/03:30pm 11.5 7.2 3.5 58 3.5 SSE 15 19 8 10 1017.7 1017.7 0.0
23/03:00pm 11.9 7.7 3.7 57 3.7 SSE 15 20 8 11 1017.8 1017.8 0.0
23/02:30pm 11.9 7.7 3.9 58 3.6 SSE 15 20 8 11 1018.0 1018.0 0.0
23/02:00pm 11.9 7.4 4.2 59 3.5 SSE 17 20 9 11 1017.9 1017.9 0.0
23/01:30pm 11.8 7.3 4.1 59 3.5 S 17 22 9 12 1017.8 1017.8 0.0
23/01:00pm 11.8 6.9 4.1 59 3.5 S 19 24 10 13 1017.7 1017.7 0.0
23/12:30pm 12.4 8.9 3.6 55 3.9 S 11 17 6 9 1017.9 1017.9 0.0
23/12:00pm 12.0 8.2 3.8 57 3.7 S 13 19 7 10 1018.0 1018.0 0.0
23/11:30am 11.6 7.4 3.9 59 3.4 SSE 15 20 8 11 1018.1 1018.1 0.0
23/11:00am 12.2 10.5 3.9 57 3.7 SSE 2 9 1 5 1018.1 1018.1 0.0
23/10:30am 12.7 10.0 3.6 54 4.1 SE 7 11 4 6 1018.5 1018.5 0.0
23/10:00am 12.2 9.6 3.4 55 3.9 E 6 9 3 5 1018.6 1018.6 0.0
23/09:30am 11.7 8.9 3.0 55 3.8 SSE 7 11 4 6 1018.7 1018.8 0.0
23/09:00am 11.8 9.0 3.1 55 3.8 ESE 7 9 4 5 1018.6 1018.6 1.8
23/08:30am 11.3 8.1 2.9 56 3.7 ESE 9 13 5 7 1018.6 1018.6 1.8
23/08:00am 9.5 6.3 2.8 63 2.9 SE 9 13 5 7 1018.3 1018.3 1.8
23/07:30am 7.7 5.6 1.5 65 2.5 ESE 2 7 1 4 1018.0 1018.0 1.8
23/07:00am 9.1 5.0 2.2 62 2.9 S 13 20 7 11 1017.9 1017.9 1.8
23/06:30am 9.2 5.5 2.3 62 2.9 SE 11 20 6 11 1017.5 1017.5 1.8
23/06:00am 9.2 5.9 2.5 63 2.8 ESE 9 15 5 8 1017.4 1017.4 1.8
23/05:30am 9.3 4.8 2.4 62 2.9 SSE 15 22 8 12 1017.3 1017.3 1.8
23/05:00am 9.4 4.6 2.5 62 2.9 SSE 17 22 9 12 1017.1 1017.1 1.8
23/04:30am 9.4 5.0 2.7 63 2.9 SSE 15 22 8 12 1016.9 1016.9 1.8
23/04:00am 9.0 5.8 2.8 65 2.6 SE 9 17 5 9 1016.7 1016.7 1.8
23/03:30am 9.1 4.6 2.2 62 2.9 SSE 15 22 8 12 1016.9 1016.9 1.8
23/03:00am 9.3 4.9 2.6 63 2.8 SE 15 20 8 11 1016.9 1016.9 1.8
23/02:30am 9.2 6.0 3.0 65 2.7 SE 9 15 5 8 1017.1 1017.1 1.8
23/02:00am 9.3 4.9 2.9 64 2.7 SSE 15 20 8 11 1017.1 1017.1 1.8
23/01:30am 9.6 5.7 3.4 65 2.7 SE 13 22 7 12 1017.3 1017.3 1.8
23/01:00am 9.6 6.2 3.8 67 2.5 ESE 11 19 6 10 1017.1 1017.1 1.8
23/12:30am 9.6 5.4 3.6 66 2.6 SE 15 20 8 11 1017.2 1017.2 1.8
23/12:00am 9.4 4.7 3.4 66 2.6 SE 17 26 9 14 1017.1 1017.1 1.8
 
Date/Time
EST
Temp
°C
App
Temp
°C
Dew
Point
°C
Rel
Hum
%
Delta-T
°C
Wind Press
QNH
hPa
Press
MSL
hPa
Rain since
9am
mm
Dir  Spd
km/h
Gust
km/h
Spd
kts
Gust
kts
22/11:30pm 9.5 5.3 3.9 68 2.5 ESE 15 24 8 13 1017.1 1017.1 1.8
22/11:00pm 9.3 4.7 3.7 68 2.4 SE 17 22 9 12 1017.2 1017.2 1.8
22/10:30pm 9.4 6.0 3.8 68 2.4 SE 11 19 6 10 1017.2 1017.2 1.8
22/10:00pm 9.4 4.8 3.8 68 2.4 SE 17 24 9 13 1017.2 1017.2 1.8
22/09:30pm 9.7 4.6 4.1 68 2.5 SSE 20 26 11 14 1017.0 1017.0 1.8
22/09:00pm 9.9 4.5 4.5 69 2.4 SSE 22 32 12 17 1016.8 1016.8 1.8
22/08:30pm 9.9 4.9 4.7 70 2.3 SE 20 32 11 17 1016.5 1016.5 1.8
22/08:00pm 9.9 4.9 4.7 70 2.3 SSE 20 26 11 14 1016.3 1016.3 1.8
22/07:30pm 10.2 5.3 5.2 71 2.3 SSE 20 28 11 15 1016.0 1016.0 1.8
22/07:00pm 10.3 5.5 5.5 72 2.2 SSE 20 26 11 14 1015.5 1015.5 1.8
22/06:30pm 10.1 5.9 5.7 74 2.0 SSE 17 24 9 13 1015.0 1015.0 1.8
22/06:00pm 10.1 5.6 5.9 75 1.9 SSE 19 28 10 15 1014.8 1014.8 1.8
22/05:30pm 10.3 5.8 5.9 74 2.0 SSE 19 26 10 14 1014.5 1014.5 1.8
22/05:00pm 10.7 6.2 6.3 74 2.1 SSE 19 28 10 15 1014.2 1014.2 1.8
22/04:30pm 11.0 6.6 6.4 73 2.2 SE 19 24 10 13 1014.0 1014.0 1.8
22/04:00pm 11.1 6.6 6.8 75 2.0 SE 20 28 11 15 1013.9 1013.9 1.8
22/03:30pm 11.0 6.5 7.1 77 1.9 SSE 20 28 11 15 1013.8 1013.8 1.8
22/03:00pm 11.1 7.0 7.8 80 1.6 SE 19 26 10 14 1013.6 1013.6 1.8
22/02:30pm 10.7 7.1 8.3 85 1.2 ESE 17 24 9 13 1013.6 1013.6 1.8
22/02:00pm 10.6 6.5 8.7 88 0.9 E 20 30 11 16 1013.5 1013.5 1.8
22/01:30pm 10.2 6.7 8.6 90 0.8 ESE 17 26 9 14 1013.7 1013.7 1.8
22/01:00pm 10.0 6.0 8.4 90 0.8 SE 19 32 10 17 1013.8 1013.8 1.8
22/12:30pm 10.4 7.7 8.8 90 0.8 E 13 17 7 9 1013.8 1013.8 1.4
22/12:00pm 10.6 8.7 8.9 89 0.8 E 9 15 5 8 1013.9 1013.9 1.2
22/11:30am 12.3 10.8 10.7 90 0.8 E 9 13 5 7 1014.0 1014.0 1.2
22/11:00am 11.4 10.1 10.1 92 0.7 ESE 7 9 4 5 1013.9 1013.9 1.2
22/10:30am 10.0 9.4 8.9 93 0.5 NE 2 6 1 3 1013.8 1013.8 1.2
22/10:00am 10.0 9.8 9.1 94 0.4 CALM 0 0 0 0 1014.0 1014.0 1.2
22/09:30am 9.4 7.7 8.3 93 0.5 SSW 7 9 4 5 1013.9 1013.9 0.8
22/09:00am 9.3 8.9 8.2 93 0.5 CALM 0 0 0 0 1013.9 1013.9 16.0
22/08:30am 9.2 7.6 8.1 93 0.5 NNW 6 6 3 3 1013.7 1013.7 15.4
22/08:00am 8.9 6.7 7.8 93 0.5 N 9 11 5 6 1013.3 1013.3 15.2
22/07:30am 8.5 5.8 7.4 93 0.5 NNE 11 13 6 7 1013.0 1013.0 15.2
22/07:00am 8.4 6.4 7.3 93 0.5 ENE 7 9 4 5 1012.7 1012.7 15.2
22/06:30am 8.5 6.6 7.4 93 0.5 ENE 7 9 4 5 1012.5 1012.5 15.2
22/06:00am 8.6 7.6 7.5 93 0.5 E 2 6 1 3 1012.4 1012.4 15.2
22/05:30am 8.6 7.6 7.5 93 0.5 E 2 7 1 4 1012.3 1012.3 15.2
22/05:00am 8.9 6.7 7.8 93 0.5 S 9 13 5 7 1012.4 1012.4 14.4
22/04:30am 8.8 6.6 7.7 93 0.5 SSW 9 17 5 9 1012.2 1012.2 12.8
22/04:00am 9.3 6.4 8.2 93 0.5 S 13 20 7 11 1012.4 1012.4 11.2
22/03:30am 9.1 6.9 8.0 93 0.5 WNW 9 13 5 7 1012.5 1012.5 10.0
22/03:00am 9.0 6.8 7.9 93 0.5 N 9 13 5 7 1012.5 1012.5 9.0
22/02:30am 9.1 6.9 8.0 93 0.5 N 9 13 5 7 1012.7 1012.7 9.0
22/02:00am 9.4 7.7 8.3 93 0.5 NNE 7 15 4 8 1012.8 1012.8 9.0
22/01:30am 9.8 7.0 8.7 93 0.5 NW 13 24 7 13 1012.7 1012.7 9.0
22/01:00am 9.3 6.8 8.2 93 0.5 NW 11 13 6 7 1012.8 1012.8 9.0
22/12:30am 9.5 7.1 8.6 94 0.4 WNW 11 17 6 9 1012.9 1012.9 9.0
22/12:00am 9.2 5.9 8.1 93 0.5 NW 15 19 8 10 1012.9 1012.9 8.8

Other Formats:

Comma delimited format used in spreadsheet applications
http://www.bom.gov.au/fwo/IDV60801/IDV60801.94826.axf

JavaScript Object Notation format (JSON) in row-major order
http://www.bom.gov.au/fwo/IDV60801/IDV60801.94826.json